createdAt,value
2023-02-25T00:00:48.972Z,99.90
2023-02-25T00:03:19.548Z,99.90
2023-02-25T00:05:46.357Z,99.90
2023-02-25T00:08:13.106Z,99.90
2023-02-25T00:10:39.764Z,99.90
2023-02-25T00:13:17.861Z,99.90
2023-02-25T00:15:45.374Z,99.90
2023-02-25T00:18:12.032Z,99.90
2023-02-25T00:20:41.713Z,99.90
2023-02-25T00:23:08.398Z,99.90
2023-02-25T00:25:35.074Z,99.90
2023-02-25T00:28:06.166Z,99.90
2023-02-25T00:30:33.692Z,99.90
2023-02-25T00:33:00.478Z,99.90
2023-02-25T00:35:27.109Z,99.90
2023-02-25T00:37:57.056Z,99.90
2023-02-25T00:40:26.270Z,99.90
2023-02-25T00:42:53.181Z,99.90
2023-02-25T00:45:19.849Z,99.90
2023-02-25T00:47:46.531Z,99.90
2023-02-25T00:50:14.355Z,99.90
2023-02-25T00:52:41.066Z,99.90
2023-02-25T00:55:08.468Z,99.90
2023-02-25T00:57:35.140Z,99.90
2023-02-25T01:00:01.841Z,99.90
2023-02-25T01:02:29.147Z,99.90
2023-02-25T01:04:55.796Z,99.90
2023-02-25T01:07:22.623Z,99.90
2023-02-25T01:09:49.284Z,99.90
2023-02-25T01:12:15.988Z,99.90
2023-02-25T01:14:44.899Z,99.90
2023-02-25T01:17:11.594Z,99.90
2023-02-25T01:19:38.298Z,99.90
2023-02-25T01:22:05.084Z,99.90
2023-02-25T01:24:33.044Z,99.90
2023-02-25T01:27:01.190Z,99.90
2023-02-25T01:29:39.346Z,99.90
2023-02-25T01:32:07.763Z,99.90
2023-02-25T01:34:35.020Z,99.90
2023-02-25T01:37:02.073Z,99.90
2023-02-25T01:39:29.081Z,99.90
2023-02-25T01:41:56.691Z,99.90
2023-02-25T01:44:25.239Z,99.90
2023-02-25T01:46:53.518Z,99.90
2023-02-25T01:49:40.371Z,99.90
2023-02-25T01:52:13.608Z,99.90
2023-02-25T01:54:40.772Z,99.90
2023-02-25T01:57:09.034Z,99.90
2023-02-25T01:59:36.125Z,99.90
2023-02-25T02:02:02.947Z,99.90
2023-02-25T02:04:30.429Z,99.90
2023-02-25T02:06:57.854Z,99.90
2023-02-25T02:09:26.428Z,99.90
2023-02-25T02:11:53.254Z,99.90
2023-02-25T02:14:28.318Z,99.90
2023-02-25T02:17:09.816Z,99.90
2023-02-25T02:19:45.569Z,99.90
2023-02-25T02:22:35.440Z,99.90
2023-02-25T02:25:20.593Z,99.90
2023-02-25T02:27:50.428Z,99.90
2023-02-25T02:30:26.175Z,99.90
2023-02-25T02:32:55.860Z,99.90
2023-02-25T02:35:35.377Z,99.90
2023-02-25T02:38:12.343Z,99.90
2023-02-25T02:40:53.236Z,99.90
2023-02-25T02:43:23.615Z,99.90
2023-02-25T02:46:07.378Z,99.90
2023-02-25T02:48:37.433Z,99.90
2023-02-25T02:51:08.026Z,99.90
2023-02-25T02:53:40.354Z,99.90
2023-02-25T02:56:08.806Z,99.90
2023-02-25T02:58:38.741Z,99.90
2023-02-25T03:01:07.446Z,99.90
2023-02-25T03:03:36.763Z,99.90
2023-02-25T03:06:05.434Z,99.90
2023-02-25T03:08:34.322Z,99.90
2023-02-25T03:11:01.018Z,99.90
2023-02-25T03:13:27.669Z,99.90
2023-02-25T03:15:54.829Z,99.90
2023-02-25T03:18:25.190Z,99.90
2023-02-25T03:20:52.327Z,99.90
2023-02-25T03:23:24.016Z,99.90
2023-02-25T03:25:52.222Z,99.90
2023-02-25T03:28:21.895Z,99.90
2023-02-25T03:30:51.438Z,99.90
2023-02-25T03:33:18.086Z,99.90
2023-02-25T03:35:47.387Z,99.90
2023-02-25T03:38:15.760Z,99.90
2023-02-25T03:40:43.099Z,99.90
2023-02-25T03:43:12.005Z,99.90
2023-02-25T03:45:40.026Z,99.90
2023-02-25T03:48:08.049Z,99.90
2023-02-25T03:50:41.306Z,99.90
2023-02-25T03:53:08.004Z,99.90
2023-02-25T03:55:34.907Z,99.90
2023-02-25T03:58:01.561Z,99.90
2023-02-25T04:00:29.849Z,99.90
2023-02-25T04:02:56.713Z,99.90
2023-02-25T04:05:26.958Z,99.90
2023-02-25T04:07:57.810Z,99.80
2023-02-25T04:10:24.999Z,98.80
2023-02-25T04:12:51.727Z,98.20
2023-02-25T04:15:19.085Z,98.20
2023-02-25T04:17:45.822Z,96.70
2023-02-25T04:20:13.795Z,96.50
2023-02-25T04:22:40.533Z,96.40
2023-02-25T04:25:07.932Z,95.50
2023-02-25T04:27:34.587Z,94.80
2023-02-25T04:30:01.291Z,95.10
2023-02-25T04:32:28.215Z,95.30
2023-02-25T04:34:55.051Z,95.40
2023-02-25T04:37:21.744Z,96.60
2023-02-25T04:39:48.417Z,96.30
2023-02-25T04:42:15.121Z,95.50
2023-02-25T04:44:41.756Z,95.80
2023-02-25T04:47:08.608Z,95.70
2023-02-25T04:49:44.662Z,95.00
2023-02-25T04:52:12.850Z,94.40
2023-02-25T04:54:39.595Z,94.80
2023-02-25T04:57:07.069Z,93.40
2023-02-25T04:59:33.835Z,92.40
2023-02-25T05:02:01.004Z,91.90
2023-02-25T05:04:27.803Z,91.20
2023-02-25T05:06:54.472Z,91.40
2023-02-25T05:09:21.344Z,91.00
2023-02-25T05:11:48.095Z,90.80
2023-02-25T05:14:14.926Z,90.80
2023-02-25T05:16:41.689Z,91.20
2023-02-25T05:19:08.384Z,90.50
2023-02-25T05:21:35.084Z,89.00
2023-02-25T05:24:01.758Z,87.60
2023-02-25T05:26:28.462Z,87.40
2023-02-25T05:28:56.407Z,88.20
2023-02-25T05:31:24.825Z,89.40
2023-02-25T05:33:51.768Z,90.10
2023-02-25T05:36:18.871Z,89.40
2023-02-25T05:38:45.779Z,89.60
2023-02-25T05:41:13.302Z,90.30
2023-02-25T05:43:40.094Z,91.70
2023-02-25T05:46:11.800Z,92.50
2023-02-25T05:48:39.541Z,92.40
2023-02-25T05:51:07.592Z,93.50
2023-02-25T05:53:34.369Z,93.90
2023-02-25T05:56:04.103Z,94.70
2023-02-25T05:58:30.863Z,94.60
2023-02-25T06:00:57.642Z,95.70
2023-02-25T06:03:24.387Z,95.40
2023-02-25T06:05:53.143Z,96.40
2023-02-25T06:08:19.845Z,97.00
2023-02-25T06:10:46.593Z,97.30
2023-02-25T06:13:13.270Z,97.40
2023-02-25T06:15:40.663Z,98.10
2023-02-25T06:18:07.754Z,99.90
2023-02-25T06:20:35.316Z,99.90
2023-02-25T06:23:02.317Z,99.80
2023-02-25T06:25:30.191Z,99.60
2023-02-25T06:27:57.359Z,99.00
2023-02-25T06:30:24.352Z,99.00
2023-02-25T06:32:51.161Z,98.90
2023-02-25T06:35:18.427Z,99.60
2023-02-25T06:37:45.143Z,99.40
2023-02-25T06:40:15.642Z,98.40
2023-02-25T06:42:42.351Z,98.20
2023-02-25T06:45:09.213Z,97.60
2023-02-25T06:47:35.888Z,97.10
2023-02-25T06:50:02.928Z,96.40
2023-02-25T06:52:29.745Z,96.00
2023-02-25T06:54:56.433Z,97.10
2023-02-25T06:57:23.101Z,97.30
2023-02-25T06:59:49.761Z,96.80
2023-02-25T07:02:16.456Z,97.50
2023-02-25T07:04:44.222Z,97.70
2023-02-25T07:07:11.446Z,97.00
2023-02-25T07:09:38.130Z,95.70
2023-02-25T07:12:04.903Z,96.30
2023-02-25T07:14:31.570Z,96.60
2023-02-25T07:16:58.207Z,96.30
2023-02-25T07:19:24.901Z,95.10
2023-02-25T07:21:51.554Z,95.30
2023-02-25T07:24:18.184Z,95.30
2023-02-25T07:26:44.859Z,96.10
2023-02-25T07:29:13.787Z,95.80
2023-02-25T07:31:40.856Z,94.60
2023-02-25T07:34:07.639Z,94.20
2023-02-25T07:36:35.924Z,94.30
2023-02-25T07:39:04.229Z,94.40
2023-02-25T07:41:30.966Z,95.50
2023-02-25T07:43:57.851Z,94.40
2023-02-25T07:46:26.170Z,94.60
2023-02-25T07:48:52.932Z,93.50
2023-02-25T07:51:21.131Z,93.50
2023-02-25T07:53:48.925Z,92.90
2023-02-25T07:56:16.343Z,92.80
2023-02-25T07:58:43.044Z,89.30
2023-02-25T08:01:10.222Z,89.40
2023-02-25T08:03:37.056Z,90.10
2023-02-25T08:06:07.950Z,90.50
2023-02-25T08:08:38.080Z,90.60
2023-02-25T08:11:06.056Z,91.00
2023-02-25T08:13:32.834Z,90.30
2023-02-25T08:15:59.563Z,90.30
2023-02-25T08:18:26.305Z,88.60
2023-02-25T08:20:55.890Z,86.70
2023-02-25T08:23:23.363Z,87.40
2023-02-25T08:25:55.122Z,88.80
2023-02-25T08:28:23.259Z,88.80
2023-02-25T08:30:50.200Z,88.40
2023-02-25T08:33:16.902Z,84.80
2023-02-25T08:35:43.755Z,83.20
2023-02-25T08:38:10.522Z,83.40
2023-02-25T08:40:37.184Z,84.00
2023-02-25T08:43:03.850Z,85.10
2023-02-25T08:45:30.530Z,84.30
2023-02-25T08:47:57.223Z,83.50
2023-02-25T08:50:24.128Z,81.30
2023-02-25T08:52:51.212Z,82.20
2023-02-25T08:55:18.347Z,82.50
2023-02-25T08:57:45.162Z,80.40
2023-02-25T09:00:15.527Z,80.00
2023-02-25T09:02:42.894Z,82.00
2023-02-25T09:05:09.714Z,80.80
2023-02-25T09:07:36.397Z,80.30
2023-02-25T09:10:07.098Z,81.50
2023-02-25T09:12:33.969Z,81.10
2023-02-25T09:15:00.641Z,82.20
2023-02-25T09:17:27.307Z,83.60
2023-02-25T09:19:54.029Z,81.90
2023-02-25T09:22:20.793Z,83.60
2023-02-25T09:24:47.642Z,83.10
2023-02-25T09:27:14.344Z,86.00
2023-02-25T09:29:41.541Z,87.70
2023-02-25T09:32:08.929Z,84.10
2023-02-25T09:34:35.705Z,81.50
2023-02-25T09:37:06.109Z,81.60
2023-02-25T09:39:32.839Z,82.20
2023-02-25T09:42:03.412Z,77.40
2023-02-25T09:44:32.549Z,76.00
2023-02-25T09:47:04.418Z,75.40
2023-02-25T09:49:36.807Z,73.00
2023-02-25T09:52:16.933Z,72.50
2023-02-25T09:54:45.408Z,72.50
2023-02-25T09:57:13.571Z,71.80
2023-02-25T09:59:40.409Z,67.90
2023-02-25T10:02:29.791Z,68.00
2023-02-25T10:05:05.648Z,67.60
2023-02-25T10:07:36.344Z,65.90
2023-02-25T10:10:23.358Z,64.60
2023-02-25T10:13:08.419Z,64.10
2023-02-25T10:15:35.055Z,62.70
2023-02-25T10:18:20.686Z,62.00
2023-02-25T10:20:50.632Z,61.90
2023-02-25T10:23:37.903Z,61.80
2023-02-25T10:26:10.917Z,64.00
2023-02-25T10:28:39.079Z,61.30
2023-02-25T10:31:07.787Z,61.40
2023-02-25T10:33:42.602Z,59.60
2023-02-25T10:36:14.556Z,61.50
2023-02-25T10:38:45.599Z,66.40
2023-02-25T10:41:12.777Z,66.50
2023-02-25T10:43:39.625Z,63.10
2023-02-25T10:46:18.438Z,61.10
2023-02-25T10:48:52.276Z,64.20
2023-02-25T10:51:18.957Z,65.40
2023-02-25T10:53:57.945Z,60.00
2023-02-25T10:56:44.351Z,58.70
2023-02-25T10:59:26.247Z,57.20
2023-02-25T11:01:53.539Z,58.50
2023-02-25T11:04:23.479Z,57.50
2023-02-25T11:06:50.485Z,57.60
2023-02-25T11:09:20.159Z,55.20
2023-02-25T11:11:58.349Z,54.10
2023-02-25T11:14:32.147Z,55.70
2023-02-25T11:17:20.409Z,54.20
2023-02-25T11:19:49.861Z,54.90
2023-02-25T11:22:22.253Z,52.50
2023-02-25T11:25:02.538Z,52.60
2023-02-25T11:27:37.903Z,52.60
2023-02-25T11:30:17.595Z,53.00
2023-02-25T11:32:45.535Z,50.40
2023-02-25T11:35:20.275Z,51.40
2023-02-25T11:37:50.609Z,50.30
2023-02-25T11:40:33.953Z,50.50
2023-02-25T11:43:01.846Z,52.60
2023-02-25T11:45:33.237Z,51.80
2023-02-25T11:48:00.664Z,50.40
2023-02-25T11:50:43.551Z,50.10
2023-02-25T11:53:29.116Z,50.00
2023-02-25T11:56:05.483Z,52.60
2023-02-25T11:58:39.202Z,51.00
2023-02-25T12:01:09.779Z,50.40
2023-02-25T12:03:40.410Z,50.90
2023-02-25T12:06:26.069Z,50.00
2023-02-25T12:09:07.917Z,50.50
2023-02-25T12:11:55.982Z,51.80
2023-02-25T12:14:25.627Z,51.90
2023-02-25T12:17:11.142Z,50.40
2023-02-25T12:19:57.214Z,51.50
2023-02-25T12:22:43.002Z,51.40
2023-02-25T12:25:15.962Z,50.70
2023-02-25T12:27:50.422Z,49.30
2023-02-25T12:30:36.014Z,50.30
2023-02-25T12:33:21.380Z,51.50
2023-02-25T12:35:54.297Z,51.70
2023-02-25T12:38:33.944Z,51.70
2023-02-25T12:41:00.762Z,51.80
2023-02-25T12:43:37.913Z,51.00
2023-02-25T12:46:07.774Z,51.80
2023-02-25T12:48:37.471Z,51.70
2023-02-25T12:51:04.113Z,51.60
2023-02-25T12:53:46.073Z,50.30
2023-02-25T12:56:31.624Z,50.80
2023-02-25T12:58:58.263Z,51.50
2023-02-25T13:01:31.187Z,51.90
2023-02-25T13:03:57.933Z,52.20
2023-02-25T13:06:27.714Z,51.00
2023-02-25T13:09:13.268Z,51.40
2023-02-25T13:12:11.595Z,51.30
2023-02-25T13:14:58.093Z,52.20
2023-02-25T13:17:35.521Z,50.80
2023-02-25T13:20:14.555Z,51.10
2023-02-25T13:22:41.240Z,51.00
2023-02-25T13:25:26.782Z,50.00
2023-02-25T13:27:59.128Z,49.90
2023-02-25T13:30:35.484Z,50.70
2023-02-25T13:33:14.010Z,52.00
2023-02-25T13:35:57.623Z,51.40
2023-02-25T13:38:27.317Z,51.40
2023-02-25T13:41:12.721Z,51.40
2023-02-25T13:43:39.358Z,51.50
2023-02-25T13:46:12.341Z,51.90
2023-02-25T13:48:42.006Z,52.80
2023-02-25T13:51:08.687Z,52.30
2023-02-25T13:53:46.784Z,52.10
2023-02-25T13:56:32.281Z,53.00
2023-02-25T13:59:18.276Z,52.50
2023-02-25T14:02:14.387Z,54.70
2023-02-25T14:04:56.440Z,54.30
2023-02-25T14:07:32.830Z,54.50
2023-02-25T14:10:18.334Z,55.20
2023-02-25T14:13:04.588Z,55.40
2023-02-25T14:15:47.672Z,56.60
2023-02-25T14:18:22.054Z,56.60
2023-02-25T14:21:07.616Z,56.60
2023-02-25T14:23:51.117Z,56.80
2023-02-25T14:26:29.564Z,56.50
2023-02-25T14:29:11.530Z,57.20
2023-02-25T14:31:38.340Z,57.00
2023-02-25T14:34:17.342Z,57.60
2023-02-25T14:36:50.441Z,57.70
2023-02-25T14:39:47.707Z,57.70
2023-02-25T14:42:25.707Z,57.30
2023-02-25T14:44:56.223Z,58.20
2023-02-25T14:47:27.780Z,57.80
2023-02-25T14:49:57.632Z,58.10
2023-02-25T14:52:33.164Z,57.80
2023-02-25T14:55:06.056Z,57.50
2023-02-25T14:57:36.568Z,57.60
2023-02-25T15:00:14.117Z,58.50
2023-02-25T15:02:53.121Z,57.90
2023-02-25T15:05:38.660Z,57.70
2023-02-25T15:08:24.161Z,58.70
2023-02-25T15:11:04.287Z,59.40
2023-02-25T15:13:43.641Z,59.50
2023-02-25T15:16:29.226Z,57.80
2023-02-25T15:19:22.458Z,58.20
2023-02-25T15:21:49.814Z,57.40
2023-02-25T15:24:35.285Z,57.70
2023-02-25T15:27:02.307Z,58.60
2023-02-25T15:29:32.359Z,59.90
2023-02-25T15:32:11.482Z,58.30
2023-02-25T15:34:39.039Z,58.70
2023-02-25T15:37:19.230Z,58.80
2023-02-25T15:39:45.884Z,60.00
2023-02-25T15:42:12.722Z,60.50
2023-02-25T15:44:40.691Z,58.70
2023-02-25T15:47:11.901Z,59.40
2023-02-25T15:49:44.378Z,61.30
2023-02-25T15:52:11.573Z,59.20
2023-02-25T15:54:38.395Z,61.40
2023-02-25T15:57:11.223Z,60.00
2023-02-25T15:59:44.028Z,60.30
2023-02-25T16:02:29.173Z,61.30
2023-02-25T16:04:58.942Z,60.60
2023-02-25T16:07:31.256Z,61.40
2023-02-25T16:09:59.551Z,60.80
2023-02-25T16:12:26.779Z,60.40
2023-02-25T16:14:53.912Z,60.60
2023-02-25T16:17:28.693Z,61.60
2023-02-25T16:20:18.406Z,61.20
2023-02-25T16:22:46.294Z,62.20
2023-02-25T16:25:15.929Z,62.10
2023-02-25T16:27:45.702Z,62.70
2023-02-25T16:30:31.140Z,62.70
2023-02-25T16:33:18.454Z,62.70
2023-02-25T16:35:55.360Z,63.00
2023-02-25T16:38:29.911Z,63.00
2023-02-25T16:40:58.564Z,63.20
2023-02-25T16:43:27.387Z,68.10
2023-02-25T16:46:05.195Z,78.20
2023-02-25T16:48:32.357Z,82.40
2023-02-25T16:51:07.146Z,83.50
2023-02-25T16:53:33.837Z,81.90
2023-02-25T16:56:00.589Z,79.50
2023-02-25T16:58:28.389Z,80.90
2023-02-25T17:00:59.898Z,78.70
2023-02-25T17:03:28.355Z,79.00
2023-02-25T17:06:18.507Z,77.90
2023-02-25T17:08:46.229Z,76.10
2023-02-25T17:11:16.096Z,82.40
2023-02-25T17:13:43.262Z,85.10
2023-02-25T17:16:18.883Z,84.60
2023-02-25T17:18:48.905Z,86.90
2023-02-25T17:21:18.708Z,87.20
2023-02-25T17:23:45.437Z,88.10
2023-02-25T17:26:13.988Z,86.90
2023-02-25T17:28:40.866Z,90.30
2023-02-25T17:31:12.902Z,90.10
2023-02-25T17:34:09.430Z,90.40
2023-02-25T17:36:39.259Z,91.80
2023-02-25T17:39:07.455Z,92.20
2023-02-25T17:41:34.968Z,92.60
2023-02-25T17:44:01.787Z,92.50
2023-02-25T17:46:39.439Z,93.20
2023-02-25T17:49:25.525Z,93.60
2023-02-25T17:51:56.725Z,93.00
2023-02-25T17:54:25.200Z,93.20
2023-02-25T17:57:06.081Z,92.90
2023-02-25T17:59:38.875Z,93.40
2023-02-25T18:02:27.928Z,94.10
2023-02-25T18:05:12.925Z,94.60
2023-02-25T18:07:41.798Z,94.00
2023-02-25T18:10:23.781Z,94.10
2023-02-25T18:12:50.651Z,94.00
2023-02-25T18:15:19.781Z,94.50
2023-02-25T18:17:50.809Z,95.00
2023-02-25T18:20:32.922Z,94.60
2023-02-25T18:23:02.715Z,95.00
2023-02-25T18:25:51.937Z,95.60
2023-02-25T18:28:21.672Z,95.70
2023-02-25T18:30:49.540Z,96.10
2023-02-25T18:33:17.645Z,96.00
2023-02-25T18:35:45.628Z,96.00
2023-02-25T18:38:19.613Z,95.90
2023-02-25T18:40:47.225Z,95.70
2023-02-25T18:43:17.916Z,95.90
2023-02-25T18:45:44.902Z,96.30
2023-02-25T18:48:12.482Z,96.00
2023-02-25T18:50:44.615Z,96.00
2023-02-25T18:53:18.817Z,96.10
2023-02-25T18:55:45.815Z,95.80
2023-02-25T18:58:13.704Z,95.90
2023-02-25T19:00:41.140Z,96.10
2023-02-25T19:03:09.952Z,96.20
2023-02-25T19:05:37.878Z,95.90
2023-02-25T19:08:11.296Z,96.10
2023-02-25T19:10:37.991Z,95.90
2023-02-25T19:13:06.134Z,95.40
2023-02-25T19:15:33.377Z,95.90
2023-02-25T19:18:00.108Z,96.80
2023-02-25T19:20:26.814Z,97.10
2023-02-25T19:22:53.878Z,97.30
2023-02-25T19:25:30.941Z,97.20
2023-02-25T19:27:57.797Z,97.00
2023-02-25T19:30:25.796Z,97.60
2023-02-25T19:32:52.614Z,97.30
2023-02-25T19:35:19.406Z,97.70
2023-02-25T19:37:46.194Z,98.30
2023-02-25T19:40:14.717Z,98.50
2023-02-25T19:42:42.944Z,99.00
2023-02-25T19:45:10.931Z,99.10
2023-02-25T19:47:37.766Z,97.80
2023-02-25T19:50:05.462Z,97.30
2023-02-25T19:52:33.338Z,97.40
2023-02-25T19:55:00.725Z,97.50
2023-02-25T19:57:27.513Z,97.40
2023-02-25T19:59:54.207Z,96.80
2023-02-25T20:02:20.900Z,96.60
2023-02-25T20:04:47.639Z,97.00
2023-02-25T20:07:15.636Z,96.70
2023-02-25T20:09:42.503Z,97.20
2023-02-25T20:12:09.384Z,97.20
2023-02-25T20:14:36.206Z,96.80
2023-02-25T20:17:02.971Z,96.70
2023-02-25T20:19:32.583Z,96.70
2023-02-25T20:21:59.704Z,96.60
2023-02-25T20:24:26.506Z,97.30
2023-02-25T20:26:53.274Z,97.10
2023-02-25T20:29:19.969Z,97.50
2023-02-25T20:31:46.946Z,98.00
2023-02-25T20:34:21.110Z,97.90
2023-02-25T20:36:54.541Z,98.20
2023-02-25T20:39:39.270Z,98.50
2023-02-25T20:42:08.916Z,97.60
2023-02-25T20:44:35.746Z,97.50
2023-02-25T20:47:04.794Z,97.80
2023-02-25T20:49:31.846Z,97.60
2023-02-25T20:51:58.732Z,98.10
2023-02-25T20:54:25.437Z,98.70
2023-02-25T20:56:52.142Z,98.00
2023-02-25T20:59:19.067Z,98.10
2023-02-25T21:01:45.778Z,98.80
2023-02-25T21:04:12.521Z,99.50
2023-02-25T21:06:39.398Z,99.90
2023-02-25T21:09:07.110Z,99.90
2023-02-25T21:11:33.869Z,99.90
2023-02-25T21:14:00.540Z,99.90
2023-02-25T21:16:27.517Z,99.90
2023-02-25T21:18:54.436Z,99.90
2023-02-25T21:21:21.782Z,99.90
2023-02-25T21:23:49.370Z,99.90
2023-02-25T21:26:16.149Z,99.90
2023-02-25T21:28:42.870Z,99.90
2023-02-25T21:31:11.336Z,99.90
2023-02-25T21:33:38.740Z,99.90
2023-02-25T21:36:06.148Z,99.90
2023-02-25T21:38:33.075Z,99.90
2023-02-25T21:41:04.701Z,99.90
2023-02-25T21:43:31.408Z,99.90
2023-02-25T21:45:59.684Z,99.90
2023-02-25T21:48:26.854Z,99.90
2023-02-25T21:50:53.565Z,99.90
2023-02-25T21:53:21.832Z,99.90
2023-02-25T21:55:48.518Z,99.90
2023-02-25T21:58:15.419Z,99.90
2023-02-25T22:00:42.531Z,99.90
2023-02-25T22:03:12.209Z,99.90
2023-02-25T22:05:39.318Z,99.90
2023-02-25T22:08:06.404Z,99.90
2023-02-25T22:10:35.322Z,99.90
2023-02-25T22:13:02.225Z,99.90
2023-02-25T22:15:29.209Z,99.90
2023-02-25T22:17:55.880Z,99.90
2023-02-25T22:20:22.743Z,99.90
2023-02-25T22:22:49.429Z,99.90
2023-02-25T22:25:16.263Z,99.90
2023-02-25T22:27:42.928Z,99.90
2023-02-25T22:30:09.950Z,99.90
2023-02-25T22:32:37.252Z,99.90
2023-02-25T22:35:04.391Z,99.90
2023-02-25T22:37:34.066Z,99.90
2023-02-25T22:40:00.771Z,99.90
2023-02-25T22:42:27.440Z,99.90
2023-02-25T22:44:54.167Z,99.90
2023-02-25T22:47:20.819Z,99.90
2023-02-25T22:49:47.551Z,99.90
2023-02-25T22:52:14.286Z,99.90
2023-02-25T22:54:41.043Z,99.90
2023-02-25T22:57:07.817Z,99.90
2023-02-25T22:59:34.563Z,99.90
2023-02-25T23:02:02.744Z,99.90
2023-02-25T23:04:29.490Z,99.90
2023-02-25T23:06:57.196Z,99.90
2023-02-25T23:09:23.927Z,99.90
2023-02-25T23:11:50.684Z,99.90
2023-02-25T23:14:17.531Z,99.90
2023-02-25T23:16:45.304Z,99.90
2023-02-25T23:19:15.801Z,99.90
2023-02-25T23:21:42.782Z,99.90
2023-02-25T23:24:10.016Z,99.90
2023-02-25T23:26:38.561Z,99.90
2023-02-25T23:29:07.490Z,99.90
2023-02-25T23:31:35.655Z,99.90
2023-02-25T23:34:04.249Z,99.90
2023-02-25T23:36:31.101Z,99.90
2023-02-25T23:38:59.246Z,99.90
2023-02-25T23:41:26.730Z,99.90
2023-02-25T23:43:54.369Z,99.90
2023-02-25T23:46:21.540Z,99.90
2023-02-25T23:48:48.265Z,99.90
2023-02-25T23:51:15.241Z,99.90
2023-02-25T23:53:42.068Z,99.90
2023-02-25T23:56:10.426Z,99.90
2023-02-25T23:58:37.532Z,99.90
